Main page
METAR-TAF:

METAR-TAF

Airports :

Jinnah International Airport

Karachi, Pakistan

latitude: 24-54N, longitude: 067-08E, elevation: 21 m

Current weather observation

The report was made 27 minutes ago, at 22:25 UTC
Wind 5 kt from the North/Northeast
Temperature 23°C
Humidity 29%
Pressure 1014 hPa
Visibility: 5000 m
haze

METAR: OPKC 142225Z 02005KT 5000 HZ NSC 23/04 Q1014 NOSIG

Time: 03:52 (22:52 UTC)

Forecast

The report was made 6 hours and 52 minutes ago, at 16:00 UTC
Forecast valid from 14 at 18 UTC to 15 at 24 UTC
Wind 7 kt from the Northeast
Visibility: 4000 m
smoke
Temporary
from 15 at 01 UTC to 15 at 04 UTC
Wind 5 kt from the Northeast
Visibility: 1500 m
smoke
From 15 at 0600 UTC
Wind 5 kt from the East/Northeast with gusts up to 15 kt
Visibility: 4000 m
smoke
From 15 at 1800 UTC
Wind 5 kt from the Northeast
Visibility: 3000 m
smoke

TAF: OPKC 141600Z 1418/1524 05007KT 4000 FU NSC TEMPO 1501/1504 04005KT 1500 FU NSC FM150600 07005G15KT 4000 FU NSC FM151800 04005KT 3000 FU NSC

Weather observations and forecasts of more than 4000 airports (METAR and TAF reports).

The available stations are represented by yellow and red dots on the map.

Hover mouse over dot to see the name of the station.

Then click to see weather observations and forecasts.

To change the map : click on the green buttons with a black cross to zoom in, on the green button with a dash to zoom out, or on the green arrows for adjacent maps.


METAR-TAF: